createdAt,value
2023-04-08T00:02:48.457Z,6.30
2023-04-08T00:07:51.867Z,6.30
2023-04-08T00:12:56.611Z,6.20
2023-04-08T00:17:59.974Z,6.10
2023-04-08T00:23:03.270Z,6.10
2023-04-08T00:28:08.037Z,6.00
2023-04-08T00:33:11.340Z,6.00
2023-04-08T00:38:14.656Z,6.00
2023-04-08T00:43:21.166Z,6.00
2023-04-08T00:48:26.608Z,6.00
2023-04-08T00:53:32.059Z,6.10
2023-04-08T00:58:37.213Z,6.20
2023-04-08T01:03:49.464Z,6.30
2023-04-08T01:08:53.593Z,6.30
2023-04-08T01:13:59.843Z,6.30
2023-04-08T01:19:03.442Z,6.30
2023-04-08T01:24:12.698Z,6.30
2023-04-08T01:29:18.505Z,6.30
2023-04-08T01:34:23.625Z,6.30
2023-04-08T01:39:28.364Z,6.30
2023-04-08T01:44:34.125Z,6.40
2023-04-08T01:49:38.319Z,6.40
2023-04-08T01:54:41.686Z,6.40
2023-04-08T01:59:51.773Z,6.30
2023-04-08T02:04:55.518Z,6.30
2023-04-08T02:09:58.849Z,6.30
2023-04-08T02:15:03.818Z,6.30
2023-04-08T02:20:10.070Z,6.30
2023-04-08T02:25:17.088Z,6.40
2023-04-08T02:30:23.020Z,6.40
2023-04-08T02:35:27.077Z,6.40
2023-04-08T02:40:31.880Z,6.40
2023-04-08T02:45:42.071Z,6.40
2023-04-08T02:50:45.382Z,6.30
2023-04-08T02:55:48.678Z,6.40
2023-04-08T03:00:53.450Z,6.40
2023-04-08T03:05:57.159Z,6.40
2023-04-08T03:11:00.400Z,6.40
2023-04-08T03:16:05.109Z,6.30
2023-04-08T03:21:08.420Z,6.30
2023-04-08T03:26:11.709Z,6.20
2023-04-08T03:31:16.507Z,6.10
2023-04-08T03:36:19.795Z,6.00
2023-04-08T03:41:23.417Z,5.90
2023-04-08T03:46:29.249Z,5.90
2023-04-08T03:51:32.537Z,5.80
2023-04-08T03:56:35.893Z,5.80
2023-04-08T04:01:41.979Z,5.80
2023-04-08T04:06:45.562Z,5.70
2023-04-08T04:11:48.819Z,5.70
2023-04-08T04:16:53.500Z,5.70
2023-04-08T04:21:56.797Z,5.70
2023-04-08T04:27:01.327Z,5.60
2023-04-08T04:32:06.764Z,5.60
2023-04-08T04:37:09.984Z,5.60
2023-04-08T04:42:13.349Z,5.60
2023-04-08T04:47:19.053Z,5.60
2023-04-08T04:52:22.375Z,5.60
2023-04-08T04:57:25.923Z,5.60
2023-04-08T05:02:31.059Z,5.60
2023-04-08T05:07:37.950Z,5.60
2023-04-08T05:12:41.504Z,5.70
2023-04-08T05:17:46.102Z,5.80
2023-04-08T05:22:50.501Z,5.80
2023-04-08T05:27:56.728Z,5.80
2023-04-08T05:33:01.507Z,5.90
2023-04-08T05:38:05.462Z,5.90
2023-04-08T05:43:09.727Z,6.00
2023-04-08T05:48:14.403Z,6.20
2023-04-08T05:53:17.663Z,6.30
2023-04-08T05:58:20.858Z,6.50
2023-04-08T06:03:25.799Z,6.60
2023-04-08T06:08:30.197Z,6.80
2023-04-08T06:13:33.728Z,7.00
2023-04-08T06:18:38.451Z,7.20
2023-04-08T06:23:41.836Z,7.50
2023-04-08T06:28:45.140Z,7.70
2023-04-08T06:33:49.865Z,7.90
2023-04-08T06:38:54.792Z,8.10
2023-04-08T06:43:58.477Z,8.20
2023-04-08T06:49:04.701Z,8.20
2023-04-08T06:54:10.390Z,8.30
2023-04-08T06:59:13.651Z,8.40
2023-04-08T07:04:18.350Z,8.70
2023-04-08T07:09:22.825Z,8.90
2023-04-08T07:14:26.386Z,9.00
2023-04-08T07:19:32.614Z,8.90
2023-04-08T07:24:35.954Z,8.90
2023-04-08T07:29:39.443Z,8.80
2023-04-08T07:34:44.146Z,8.70
2023-04-08T07:39:50.036Z,8.50
2023-04-08T07:44:53.550Z,8.30
2023-04-08T07:49:58.303Z,8.10
2023-04-08T07:55:03.006Z,7.90
2023-04-08T08:00:07.342Z,7.90
2023-04-08T08:05:12.257Z,8.00
2023-04-08T08:10:15.520Z,8.20
2023-04-08T08:15:18.880Z,8.40
2023-04-08T08:20:24.799Z,8.70
2023-04-08T08:25:28.086Z,8.80
2023-04-08T08:30:34.188Z,9.00
2023-04-08T08:35:39.940Z,9.40
2023-04-08T08:40:43.367Z,9.90
2023-04-08T08:45:46.675Z,10.10
2023-04-08T08:50:51.425Z,9.70
2023-04-08T09:06:06.774Z,9.60
2023-04-08T09:11:14.765Z,10.10
2023-04-08T09:16:20.158Z,10.40
2023-04-08T09:21:27.443Z,10.40
2023-04-08T09:26:30.870Z,10.40
2023-04-08T09:31:36.426Z,10.60
2023-04-08T09:36:41.516Z,10.60
2023-04-08T09:41:46.049Z,11.00
2023-04-08T09:46:57.580Z,11.60
2023-04-08T09:52:11.106Z,12.20
2023-04-08T09:57:19.003Z,12.70
2023-04-08T10:02:31.292Z,12.70
2023-04-08T10:07:36.606Z,13.10
2023-04-08T10:12:40.395Z,13.50
2023-04-08T10:17:43.770Z,14.30
2023-04-08T10:22:58.209Z,14.60
2023-04-08T10:28:02.215Z,14.00
2023-04-08T10:33:12.404Z,14.10
2023-04-08T10:38:17.884Z,15.00
2023-04-08T10:43:22.240Z,15.10
2023-04-08T10:48:29.160Z,14.20
2023-04-08T10:53:35.930Z,12.60
2023-04-08T10:58:49.380Z,13.00
2023-04-08T11:03:53.564Z,13.00
2023-04-08T11:09:00.255Z,13.10
2023-04-08T11:14:03.584Z,13.80
2023-04-08T11:19:09.023Z,13.40
2023-04-08T11:24:16.414Z,12.80
2023-04-08T11:29:20.964Z,12.50
2023-04-08T11:34:25.609Z,12.20
2023-04-08T11:39:31.560Z,12.20
2023-04-08T11:44:34.981Z,11.90
2023-04-08T11:49:56.329Z,11.50
2023-04-08T11:55:01.941Z,11.90
2023-04-08T12:00:08.484Z,11.70
2023-04-08T12:05:12.016Z,11.50
2023-04-08T12:10:17.250Z,11.50
2023-04-08T12:15:20.821Z,11.60
2023-04-08T12:20:24.544Z,11.60
2023-04-08T12:26:05.195Z,11.40
2023-04-08T12:31:08.745Z,11.20
2023-04-08T12:36:13.735Z,11.00
2023-04-08T12:41:20.731Z,10.60
2023-04-08T12:46:24.214Z,10.40
2023-04-08T12:51:27.578Z,10.60
2023-04-08T12:56:35.170Z,10.80
2023-04-08T13:01:38.718Z,11.30
2023-04-08T13:06:42.333Z,11.40
2023-04-08T13:11:47.344Z,11.20
2023-04-08T13:16:50.783Z,11.00
2023-04-08T13:21:54.187Z,11.10
2023-04-08T13:26:59.365Z,10.90
2023-04-08T13:32:02.695Z,11.00
2023-04-08T13:37:06.056Z,10.90
2023-04-08T13:42:10.766Z,10.60
2023-04-08T13:47:14.032Z,10.40
2023-04-08T13:52:17.454Z,10.30
2023-04-08T13:57:22.194Z,10.30
2023-04-08T14:02:25.764Z,10.30
2023-04-08T14:07:29.227Z,10.30
2023-04-08T14:12:33.953Z,10.10
2023-04-08T14:17:37.445Z,10.20
2023-04-08T14:22:42.143Z,10.20
2023-04-08T14:27:57.455Z,10.30
2023-04-08T14:33:02.323Z,10.00
2023-04-08T14:38:05.643Z,10.00
2023-04-08T14:43:10.848Z,10.20
2023-04-08T14:48:14.339Z,10.40
2023-04-08T14:53:18.077Z,10.40
2023-04-08T14:58:22.757Z,10.50
2023-04-08T15:03:26.274Z,10.90
2023-04-08T15:08:29.876Z,10.90
2023-04-08T15:13:37.792Z,11.10
2023-04-08T15:18:43.120Z,10.90
2023-04-08T15:23:46.652Z,10.70
2023-04-08T15:28:52.084Z,10.70
2023-04-08T15:33:56.602Z,10.70
2023-04-08T15:38:59.841Z,10.50
2023-04-08T15:44:04.845Z,10.30
2023-04-08T15:49:09.407Z,10.10
2023-04-08T15:54:12.985Z,10.00
2023-04-08T15:59:17.580Z,9.80
2023-04-08T16:04:21.627Z,9.60
2023-04-08T16:09:27.572Z,9.50
2023-04-08T16:14:33.057Z,9.50
2023-04-08T16:19:36.413Z,9.30
2023-04-08T16:24:45.538Z,9.20
2023-04-08T16:29:50.354Z,9.20
2023-04-08T16:34:53.748Z,9.20
2023-04-08T16:39:57.607Z,9.10
2023-04-08T16:45:02.400Z,9.20
2023-04-08T16:50:07.434Z,9.20
2023-04-08T16:55:17.637Z,9.00
2023-04-08T17:00:22.470Z,9.00
2023-04-08T17:05:26.581Z,9.00
2023-04-08T17:10:29.978Z,8.80
2023-04-08T17:15:37.902Z,8.70
2023-04-08T17:20:41.368Z,8.70
2023-04-08T17:25:44.772Z,8.60
2023-04-08T17:30:50.333Z,8.50
2023-04-08T17:35:53.868Z,8.50
2023-04-08T17:40:58.395Z,8.40
2023-04-08T17:46:03.431Z,8.10
2023-04-08T17:51:07.868Z,8.00
2023-04-08T17:56:11.212Z,8.00
2023-04-08T18:01:17.233Z,7.90
2023-04-08T18:06:22.203Z,7.80
2023-04-08T18:11:29.225Z,7.70
2023-04-08T18:16:34.257Z,7.70
2023-04-08T18:21:37.645Z,7.60
2023-04-08T18:26:42.722Z,7.50
2023-04-08T18:31:49.550Z,7.50
2023-04-08T18:36:54.126Z,7.40
2023-04-08T18:41:58.053Z,7.40
2023-04-08T18:47:03.508Z,7.40
2023-04-08T18:52:08.573Z,7.40
2023-04-08T18:57:12.306Z,7.40
2023-04-08T19:02:17.516Z,7.40
2023-04-08T19:07:20.977Z,7.40
2023-04-08T19:12:27.261Z,7.30
2023-04-08T19:17:33.245Z,7.20
2023-04-08T19:22:37.325Z,7.20
2023-04-08T19:27:40.771Z,7.20
2023-04-08T19:32:47.007Z,7.10
2023-04-08T19:37:50.798Z,7.10
2023-04-08T19:42:54.274Z,7.00
2023-04-08T19:48:04.475Z,7.00
2023-04-08T19:53:07.816Z,6.90
2023-04-08T19:58:13.905Z,6.90
2023-04-08T20:03:22.510Z,6.90
2023-04-08T20:08:27.310Z,6.90
2023-04-08T20:13:31.785Z,6.90
2023-04-08T20:18:36.720Z,6.90
2023-04-08T20:23:45.058Z,6.80
2023-04-08T20:28:48.651Z,6.80
2023-04-08T20:33:54.624Z,6.80
2023-04-08T20:38:58.226Z,6.80
2023-04-08T20:44:01.750Z,6.70
2023-04-08T20:49:07.915Z,6.70
2023-04-08T20:54:11.227Z,6.70
2023-04-08T20:59:14.464Z,6.70
2023-04-08T21:04:19.465Z,6.70
2023-04-08T21:09:23.130Z,6.70
2023-04-08T21:14:26.662Z,6.60
2023-04-08T21:19:35.376Z,6.60
2023-04-08T21:24:39.851Z,6.60
2023-04-08T21:29:43.279Z,6.50
2023-04-08T21:34:48.043Z,6.50
2023-04-08T21:39:53.893Z,6.50
2023-04-08T21:44:57.710Z,6.40
2023-04-08T21:50:03.234Z,6.30
2023-04-08T21:55:10.776Z,6.30
2023-04-08T22:00:17.427Z,6.20
2023-04-08T22:05:22.200Z,6.10
2023-04-08T22:10:26.565Z,6.10
2023-04-08T22:15:30.021Z,5.90
2023-04-08T22:20:34.808Z,5.80
2023-04-08T22:25:38.234Z,5.70
2023-04-08T22:30:41.767Z,5.60
2023-04-08T22:35:46.507Z,5.50
2023-04-08T22:40:49.861Z,5.40
2023-04-08T22:45:54.701Z,5.40
2023-04-08T22:50:59.506Z,5.40
2023-04-08T22:56:03.055Z,5.30
2023-04-08T23:01:12.627Z,5.30
2023-04-08T23:06:17.475Z,5.20
2023-04-08T23:11:20.770Z,5.20
2023-04-08T23:16:24.222Z,5.10
2023-04-08T23:21:29.395Z,5.10
2023-04-08T23:26:32.634Z,5.10
2023-04-08T23:31:36.078Z,5.20
2023-04-08T23:36:40.930Z,5.20
2023-04-08T23:41:44.255Z,5.20
2023-04-08T23:46:47.586Z,5.10
2023-04-08T23:51:53.632Z,5.10
2023-04-08T23:56:57.344Z,5.10
